createdAt,value
2023-04-06T00:00:09.920Z,63.61
2023-04-06T00:02:37.193Z,62.15
2023-04-06T00:05:03.944Z,61.48
2023-04-06T00:07:31.033Z,62.32
2023-04-06T00:09:57.531Z,63.30
2023-04-06T00:12:24.036Z,63.55
2023-04-06T00:14:50.489Z,63.40
2023-04-06T00:17:16.967Z,64.42
2023-04-06T00:19:43.467Z,64.11
2023-04-06T00:22:10.006Z,63.61
2023-04-06T00:24:36.489Z,63.07
2023-04-06T00:27:03.107Z,63.59
2023-04-06T00:29:29.602Z,63.29
2023-04-06T00:31:56.098Z,61.72
2023-04-06T00:34:24.486Z,61.51
2023-04-06T00:36:51.100Z,61.14
2023-04-06T00:39:19.769Z,61.32
2023-04-06T00:41:51.963Z,61.11
2023-04-06T00:44:18.941Z,63.00
2023-04-06T00:46:45.908Z,61.79
2023-04-06T00:49:12.570Z,62.28
2023-04-06T00:51:39.052Z,62.25
2023-04-06T00:54:06.494Z,63.20
2023-04-06T00:56:33.120Z,62.15
2023-04-06T00:59:00.412Z,62.43
2023-04-06T01:01:27.207Z,63.94
2023-04-06T01:03:54.041Z,64.00
2023-04-06T01:06:20.872Z,63.39
2023-04-06T01:08:47.458Z,63.47
2023-04-06T01:11:13.898Z,63.05
2023-04-06T01:13:40.356Z,62.94
2023-04-06T01:16:07.419Z,62.72
2023-04-06T01:18:34.030Z,62.72
2023-04-06T01:21:00.701Z,63.68
2023-04-06T01:23:27.388Z,64.13
2023-04-06T01:25:53.872Z,64.15
2023-04-06T01:28:20.384Z,63.40
2023-04-06T01:30:46.842Z,64.09
2023-04-06T01:33:13.398Z,64.22
2023-04-06T01:35:39.924Z,63.41
2023-04-06T01:38:06.470Z,63.94
2023-04-06T01:40:32.935Z,63.52
2023-04-06T01:42:59.387Z,63.27
2023-04-06T01:45:26.274Z,63.74
2023-04-06T01:47:52.895Z,63.48
2023-04-06T01:50:19.388Z,64.30
2023-04-06T01:52:46.194Z,63.71
2023-04-06T01:55:12.673Z,64.60
2023-04-06T01:57:39.216Z,64.54
2023-04-06T02:00:06.519Z,64.64
2023-04-06T02:02:33.159Z,66.29
2023-04-06T02:04:59.782Z,65.18
2023-04-06T02:07:26.291Z,65.50
2023-04-06T02:09:56.570Z,65.34
2023-04-06T02:12:23.364Z,64.79
2023-04-06T02:14:49.870Z,65.13
2023-04-06T02:17:16.379Z,65.07
2023-04-06T02:19:42.851Z,64.71
2023-04-06T02:22:10.493Z,65.16
2023-04-06T02:24:37.526Z,64.89
2023-04-06T02:27:04.033Z,64.62
2023-04-06T02:29:30.461Z,65.29
2023-04-06T02:31:56.941Z,65.04
2023-04-06T02:34:23.415Z,64.90
2023-04-06T02:36:49.910Z,64.47
2023-04-06T02:39:16.740Z,64.59
2023-04-06T02:41:43.190Z,64.49
2023-04-06T02:44:10.034Z,64.33
2023-04-06T02:46:36.576Z,64.15
2023-04-06T02:49:03.021Z,63.88
2023-04-06T02:51:29.483Z,63.70
2023-04-06T02:53:55.944Z,64.47
2023-04-06T02:56:22.578Z,64.22
2023-04-06T02:58:49.135Z,63.82
2023-04-06T03:01:16.180Z,62.99
2023-04-06T03:03:43.032Z,63.57
2023-04-06T03:06:09.643Z,62.85
2023-04-06T03:08:36.191Z,63.99
2023-04-06T03:11:02.679Z,64.04
2023-04-06T03:13:29.123Z,64.60
2023-04-06T03:15:55.711Z,64.57
2023-04-06T03:18:26.687Z,64.54
2023-04-06T03:20:56.433Z,64.04
2023-04-06T03:23:23.206Z,65.04
2023-04-06T03:25:49.935Z,64.82
2023-04-06T03:28:17.147Z,64.06
2023-04-06T03:30:43.788Z,63.61
2023-04-06T03:33:10.373Z,63.99
2023-04-06T03:35:38.071Z,64.32
2023-04-06T03:38:05.395Z,65.75
2023-04-06T03:40:32.585Z,64.51
2023-04-06T03:42:59.298Z,64.58
2023-04-06T03:45:25.976Z,65.51
2023-04-06T03:47:52.523Z,65.29
2023-04-06T03:50:19.192Z,66.29
2023-04-06T03:52:45.830Z,66.06
2023-04-06T03:55:12.318Z,66.53
2023-04-06T03:57:38.827Z,66.82
2023-04-06T04:00:05.894Z,67.90
2023-04-06T04:02:32.384Z,66.39
2023-04-06T04:04:58.860Z,67.08
2023-04-06T04:07:25.448Z,66.47
2023-04-06T04:09:51.925Z,67.06
2023-04-06T04:12:18.394Z,67.92
2023-04-06T04:14:44.934Z,67.64
2023-04-06T04:17:11.455Z,68.04
2023-04-06T04:19:38.017Z,68.39
2023-04-06T04:22:05.959Z,68.13
2023-04-06T04:24:32.656Z,68.99
2023-04-06T04:26:59.304Z,68.87
2023-04-06T04:29:26.033Z,68.19
2023-04-06T04:31:53.277Z,67.44
2023-04-06T04:34:24.981Z,67.27
2023-04-06T04:36:52.075Z,66.98
2023-04-06T04:39:18.562Z,67.10
2023-04-06T04:41:45.249Z,66.83
2023-04-06T04:44:11.779Z,68.21
2023-04-06T04:46:38.250Z,69.29
2023-04-06T04:49:04.864Z,69.25
2023-04-06T04:51:32.742Z,68.74
2023-04-06T04:53:59.194Z,68.28
2023-04-06T04:56:26.286Z,68.80
2023-04-06T04:58:52.748Z,68.07
2023-04-06T05:01:19.224Z,69.41
2023-04-06T05:03:45.953Z,68.81
2023-04-06T05:06:13.587Z,68.51
2023-04-06T05:08:40.526Z,68.67
2023-04-06T05:11:07.097Z,69.43
2023-04-06T05:13:33.803Z,69.28
2023-04-06T05:16:00.628Z,69.11
2023-04-06T05:18:27.254Z,68.79
2023-04-06T05:20:53.815Z,68.21
2023-04-06T05:23:20.423Z,67.84
2023-04-06T05:25:46.936Z,67.14
2023-04-06T05:28:15.263Z,68.46
2023-04-06T05:30:42.134Z,68.60
2023-04-06T05:33:08.788Z,67.96
2023-04-06T05:35:35.696Z,67.77
2023-04-06T05:38:02.423Z,66.83
2023-04-06T05:40:28.992Z,66.63
2023-04-06T05:42:55.453Z,66.96
2023-04-06T05:45:22.344Z,66.23
2023-04-06T05:47:48.927Z,65.33
2023-04-06T05:50:16.741Z,65.35
2023-04-06T05:52:44.223Z,64.93
2023-04-06T05:55:12.099Z,63.98
2023-04-06T05:57:38.695Z,63.04
2023-04-06T06:00:07.784Z,62.59
2023-04-06T06:02:34.350Z,62.71
2023-04-06T06:05:01.226Z,61.27
2023-04-06T06:07:27.854Z,60.89
2023-04-06T06:09:58.235Z,60.42
2023-04-06T06:12:25.005Z,59.64
2023-04-06T06:14:51.541Z,60.11
2023-04-06T06:17:18.046Z,59.89
2023-04-06T06:19:44.548Z,59.49
2023-04-06T06:22:11.577Z,59.04
2023-04-06T06:24:38.144Z,58.27
2023-04-06T06:27:04.755Z,56.84
2023-04-06T06:29:31.221Z,57.62
2023-04-06T06:31:57.705Z,56.99
2023-04-06T06:34:24.374Z,55.72
2023-04-06T06:36:52.354Z,55.61
2023-04-06T06:39:19.423Z,54.57
2023-04-06T06:41:46.083Z,52.77
2023-04-06T06:44:12.588Z,51.86
2023-04-06T06:46:39.066Z,51.26
2023-04-06T06:49:07.054Z,49.80
2023-04-06T06:51:33.858Z,49.66
2023-04-06T06:54:00.334Z,50.33
2023-04-06T06:56:30.238Z,48.24
2023-04-06T06:58:56.934Z,47.55
2023-04-06T07:01:23.870Z,46.87
2023-04-06T07:03:50.372Z,45.81
2023-04-06T07:06:16.921Z,46.27
2023-04-06T07:08:43.481Z,45.62
2023-04-06T07:11:09.988Z,45.51
2023-04-06T07:13:36.460Z,44.23
2023-04-06T07:16:03.021Z,43.74
2023-04-06T07:18:29.618Z,43.56
2023-04-06T07:20:56.155Z,43.32
2023-04-06T07:23:22.692Z,41.90
2023-04-06T07:25:51.948Z,40.97
2023-04-06T07:28:18.515Z,41.44
2023-04-06T07:30:45.063Z,40.41
2023-04-06T07:33:11.891Z,39.43
2023-04-06T07:35:38.895Z,38.92
2023-04-06T07:38:05.576Z,38.44
2023-04-06T07:40:33.702Z,38.43
2023-04-06T07:43:00.190Z,38.82
2023-04-06T07:45:26.733Z,37.65
2023-04-06T07:47:53.296Z,36.33
2023-04-06T07:50:19.906Z,36.00
2023-04-06T07:52:46.411Z,36.21
2023-04-06T07:55:12.933Z,36.39
2023-04-06T07:57:39.517Z,36.26
2023-04-06T08:00:06.727Z,35.12
2023-04-06T08:02:33.430Z,34.51
2023-04-06T08:05:00.217Z,34.13
2023-04-06T08:07:26.877Z,34.00
2023-04-06T08:09:53.395Z,32.80
2023-04-06T08:12:19.908Z,31.87
2023-04-06T08:14:46.407Z,31.73
2023-04-06T08:17:13.500Z,31.99
2023-04-06T08:19:40.012Z,32.61
2023-04-06T08:22:06.522Z,30.54
2023-04-06T08:24:33.460Z,30.72
2023-04-06T08:27:00.022Z,31.50
2023-04-06T08:29:26.524Z,29.43
2023-04-06T08:31:53.084Z,29.58
2023-04-06T08:34:19.620Z,29.35
2023-04-06T08:36:47.034Z,28.93
2023-04-06T08:39:13.694Z,29.51
2023-04-06T08:41:44.070Z,28.92
2023-04-06T08:44:10.949Z,27.40
2023-04-06T08:46:37.650Z,26.94
2023-04-06T08:49:07.572Z,27.36
2023-04-06T08:51:34.083Z,27.85
2023-04-06T08:54:01.559Z,27.29
2023-04-06T08:56:29.225Z,28.26
2023-04-06T08:58:56.676Z,27.63
2023-04-06T09:01:28.189Z,27.72
2023-04-06T09:03:59.946Z,28.38
2023-04-06T09:06:28.161Z,25.82
2023-04-06T09:08:55.783Z,24.94
2023-04-06T09:11:22.421Z,26.30
2023-04-06T09:13:54.266Z,24.66
2023-04-06T09:16:21.644Z,24.31
2023-04-06T09:18:48.933Z,24.60
2023-04-06T09:21:18.411Z,23.46
2023-04-06T09:23:45.490Z,23.77
2023-04-06T09:26:16.708Z,22.28
2023-04-06T09:28:56.700Z,23.23
2023-04-06T09:31:25.741Z,22.91
2023-04-06T09:33:55.795Z,24.71
2023-04-06T09:36:42.229Z,25.14
2023-04-06T09:39:08.796Z,23.73
2023-04-06T09:41:36.640Z,23.85
2023-04-06T09:44:11.407Z,23.96
2023-04-06T09:46:59.617Z,23.83
2023-04-06T09:49:31.278Z,23.04
2023-04-06T09:52:07.535Z,22.74
2023-04-06T09:54:36.095Z,26.24
2023-04-06T09:57:08.868Z,23.23
2023-04-06T09:59:42.711Z,25.36
2023-04-06T10:02:23.591Z,25.07
2023-04-06T10:04:57.745Z,23.19
2023-04-06T10:07:24.531Z,23.86
2023-04-06T10:09:54.276Z,22.81
2023-04-06T10:12:21.406Z,22.73
2023-04-06T10:14:48.477Z,21.76
2023-04-06T10:17:14.975Z,21.92
2023-04-06T10:19:59.206Z,20.63
2023-04-06T10:22:41.971Z,20.87
2023-04-06T10:25:09.614Z,21.08
2023-04-06T10:27:36.213Z,20.66
2023-04-06T10:30:07.622Z,20.99
2023-04-06T10:32:36.857Z,21.65
2023-04-06T10:35:08.155Z,21.17
2023-04-06T10:38:05.283Z,21.15
2023-04-06T10:40:35.266Z,22.00
2023-04-06T10:43:09.829Z,24.48
2023-04-06T10:45:36.857Z,22.84
2023-04-06T10:48:14.891Z,26.10
2023-04-06T10:50:43.270Z,23.02
2023-04-06T10:53:09.830Z,25.70
2023-04-06T10:55:40.675Z,24.59
2023-04-06T10:58:08.676Z,25.02
2023-04-06T11:00:47.347Z,22.93
2023-04-06T11:03:16.985Z,23.19
2023-04-06T11:05:48.417Z,24.31
2023-04-06T11:08:27.509Z,23.18
2023-04-06T11:11:09.449Z,22.95
2023-04-06T11:13:55.491Z,22.98
2023-04-06T11:16:24.324Z,21.89
2023-04-06T11:18:57.214Z,21.75
2023-04-06T11:21:34.240Z,23.94
2023-04-06T11:24:16.406Z,22.21
2023-04-06T11:27:01.426Z,22.29
2023-04-06T11:29:31.272Z,21.57
2023-04-06T11:32:03.311Z,22.85
2023-04-06T11:34:31.693Z,22.86
2023-04-06T11:36:59.907Z,21.55
2023-04-06T11:39:28.390Z,21.69
2023-04-06T11:41:58.291Z,21.51
2023-04-06T11:44:43.508Z,22.97
2023-04-06T11:47:11.910Z,21.97
2023-04-06T11:49:40.053Z,21.90
2023-04-06T11:52:20.227Z,22.64
2023-04-06T11:54:48.564Z,23.66
2023-04-06T11:57:15.699Z,22.92
2023-04-06T11:59:42.386Z,22.31
2023-04-06T12:02:09.057Z,21.82
2023-04-06T12:04:35.956Z,22.29
2023-04-06T12:07:03.101Z,23.17
2023-04-06T12:09:30.120Z,22.28
2023-04-06T12:11:57.059Z,22.78
2023-04-06T12:14:24.132Z,22.14
2023-04-06T12:16:50.876Z,22.29
2023-04-06T12:19:17.385Z,22.24
2023-04-06T12:21:44.070Z,22.14
2023-04-06T12:24:10.564Z,22.68
2023-04-06T12:26:38.164Z,23.49
2023-04-06T12:29:08.205Z,22.51
2023-04-06T12:31:40.056Z,22.35
2023-04-06T12:34:06.982Z,22.20
2023-04-06T12:36:33.834Z,22.09
2023-04-06T12:39:04.268Z,21.88
2023-04-06T12:41:30.819Z,20.22
2023-04-06T12:43:57.555Z,20.82
2023-04-06T12:46:24.608Z,21.67
2023-04-06T12:48:54.628Z,21.88
2023-04-06T12:51:21.366Z,21.33
2023-04-06T12:53:47.917Z,21.03
2023-04-06T12:56:17.868Z,21.57
2023-04-06T12:58:45.223Z,22.40
2023-04-06T13:01:14.943Z,22.01
2023-04-06T13:03:42.327Z,21.47
2023-04-06T13:06:09.562Z,23.35
2023-04-06T13:08:38.235Z,22.36
2023-04-06T13:11:05.966Z,23.17
2023-04-06T13:13:32.615Z,22.31
2023-04-06T13:16:07.995Z,22.59
2023-04-06T13:18:35.757Z,23.71
2023-04-06T13:21:02.298Z,22.70
2023-04-06T13:23:29.012Z,23.12
2023-04-06T13:26:06.487Z,23.54
2023-04-06T13:28:35.537Z,23.51
2023-04-06T13:31:03.399Z,23.98
2023-04-06T13:33:31.814Z,25.26
2023-04-06T13:35:59.446Z,23.86
2023-04-06T13:38:26.166Z,23.46
2023-04-06T13:40:53.030Z,23.84
2023-04-06T13:43:21.312Z,24.05
2023-04-06T13:45:51.918Z,24.58
2023-04-06T13:48:18.860Z,24.78
2023-04-06T13:50:46.111Z,24.87
2023-04-06T13:53:13.381Z,25.15
2023-04-06T13:55:39.926Z,26.08
2023-04-06T13:58:06.442Z,24.86
2023-04-06T14:00:32.938Z,25.16
2023-04-06T14:02:59.509Z,26.11
2023-04-06T14:05:27.488Z,25.22
2023-04-06T14:07:54.040Z,26.24
2023-04-06T14:10:22.820Z,26.18
2023-04-06T14:12:49.327Z,27.95
2023-04-06T14:15:16.420Z,28.21
2023-04-06T14:17:42.911Z,27.68
2023-04-06T14:20:14.891Z,26.67
2023-04-06T14:22:43.857Z,26.73
2023-04-06T14:25:12.372Z,26.37
2023-04-06T14:27:39.746Z,26.70
2023-04-06T14:30:07.198Z,28.23
2023-04-06T14:32:33.919Z,27.66
2023-04-06T14:35:00.483Z,26.29
2023-04-06T14:37:27.293Z,26.46
2023-04-06T14:39:54.073Z,26.71
2023-04-06T14:42:20.719Z,26.99
2023-04-06T14:44:47.267Z,27.42
2023-04-06T14:47:16.751Z,26.73
2023-04-06T14:49:43.348Z,27.28
2023-04-06T14:52:09.801Z,26.51
2023-04-06T14:54:36.291Z,26.89
2023-04-06T14:57:02.949Z,27.31
2023-04-06T15:02:01.473Z,27.39
2023-04-06T15:04:28.131Z,28.13
2023-04-06T15:06:54.665Z,26.92
2023-04-06T15:09:21.163Z,26.68
2023-04-06T15:11:47.655Z,27.20
2023-04-06T15:14:14.151Z,28.60
2023-04-06T15:16:40.779Z,28.06
2023-04-06T15:19:07.282Z,27.62
2023-04-06T15:21:33.858Z,28.08
2023-04-06T15:24:00.485Z,28.33
2023-04-06T15:26:27.376Z,29.29
2023-04-06T15:28:53.884Z,30.05
2023-04-06T15:31:36.697Z,30.86
2023-04-06T15:34:05.697Z,30.42
2023-04-06T15:36:32.291Z,31.28
2023-04-06T15:38:59.088Z,30.79
2023-04-06T15:41:26.970Z,29.54
2023-04-06T15:43:54.312Z,29.63
2023-04-06T15:46:21.962Z,29.64
2023-04-06T15:48:48.759Z,29.65
2023-04-06T15:51:17.656Z,30.95
2023-04-06T15:53:45.340Z,29.83
2023-04-06T15:56:14.250Z,29.66
2023-04-06T15:58:41.104Z,29.79
2023-04-06T16:01:16.131Z,30.49
2023-04-06T16:03:43.985Z,30.73
2023-04-06T16:06:11.071Z,30.54
2023-04-06T16:08:39.169Z,30.64
2023-04-06T16:11:05.872Z,30.90
2023-04-06T16:13:33.409Z,31.24
2023-04-06T16:16:00.056Z,31.99
2023-04-06T16:18:27.156Z,33.11
2023-04-06T16:20:53.719Z,32.62
2023-04-06T16:23:20.624Z,32.29
2023-04-06T16:25:47.118Z,33.66
2023-04-06T16:28:13.616Z,34.21
2023-04-06T16:30:41.642Z,33.42
2023-04-06T16:33:10.152Z,35.11
2023-04-06T16:35:36.732Z,34.34
2023-04-06T16:38:03.250Z,32.77
2023-04-06T16:40:29.796Z,32.36
2023-04-06T16:42:56.258Z,31.94
2023-04-06T16:45:22.771Z,32.35
2023-04-06T16:47:50.569Z,32.10
2023-04-06T16:50:17.673Z,31.92
2023-04-06T16:52:44.828Z,31.85
2023-04-06T16:55:12.079Z,32.08
2023-04-06T16:57:38.690Z,32.54
2023-04-06T17:00:07.816Z,32.40
2023-04-06T17:02:36.363Z,33.61
2023-04-06T17:05:04.085Z,32.07
2023-04-06T17:07:32.965Z,32.95
2023-04-06T17:10:01.456Z,34.46
2023-04-06T17:12:29.113Z,33.78
2023-04-06T17:14:55.720Z,33.23
2023-04-06T17:17:22.283Z,33.27
2023-04-06T17:19:48.920Z,33.05
2023-04-06T17:22:20.474Z,32.64
2023-04-06T17:24:49.792Z,33.11
2023-04-06T17:27:16.685Z,34.27
2023-04-06T17:29:43.223Z,33.18
2023-04-06T17:32:11.522Z,33.76
2023-04-06T17:34:37.999Z,33.66
2023-04-06T17:37:04.502Z,33.75
2023-04-06T17:39:31.435Z,33.57
2023-04-06T17:41:58.267Z,34.94
2023-04-06T17:44:24.971Z,34.61
2023-04-06T17:46:51.687Z,35.43
2023-04-06T17:49:18.126Z,35.55
2023-04-06T17:51:45.423Z,37.64
2023-04-06T17:54:12.457Z,36.86
2023-04-06T17:56:38.971Z,39.50
2023-04-06T17:59:08.110Z,37.49
2023-04-06T18:01:34.965Z,38.50
2023-04-06T18:04:01.608Z,38.96
2023-04-06T18:06:28.242Z,39.77
2023-04-06T18:08:55.034Z,38.18
2023-04-06T18:11:21.926Z,38.76
2023-04-06T18:13:48.974Z,40.07
2023-04-06T18:16:17.601Z,39.04
2023-04-06T18:18:44.344Z,37.54
2023-04-06T18:21:10.944Z,37.11
2023-04-06T18:23:38.232Z,36.52
2023-04-06T18:26:06.239Z,36.80
2023-04-06T18:28:33.750Z,38.02
2023-04-06T18:31:00.651Z,37.63
2023-04-06T18:33:30.179Z,37.69
2023-04-06T18:35:56.855Z,37.78
2023-04-06T18:38:24.174Z,37.50
2023-04-06T18:40:51.094Z,37.55
2023-04-06T18:43:17.624Z,38.06
2023-04-06T18:45:44.481Z,38.50
2023-04-06T18:48:11.337Z,38.52
2023-04-06T18:50:37.901Z,38.67
2023-04-06T18:53:04.381Z,38.88
2023-04-06T18:55:34.598Z,39.22
2023-04-06T18:58:01.144Z,40.01
2023-04-06T19:00:27.711Z,39.17
2023-04-06T19:02:54.529Z,40.15
2023-04-06T19:05:22.411Z,40.41
2023-04-06T19:07:52.596Z,41.02
2023-04-06T19:10:19.951Z,40.67
2023-04-06T19:12:47.677Z,41.93
2023-04-06T19:15:14.674Z,41.62
2023-04-06T19:17:41.661Z,42.18
2023-04-06T19:20:08.743Z,42.37
2023-04-06T19:22:38.580Z,41.84
2023-04-06T19:25:06.575Z,41.81
2023-04-06T19:27:33.352Z,42.08
2023-04-06T19:30:00.450Z,42.71
2023-04-06T19:32:27.432Z,42.81
2023-04-06T19:34:54.175Z,43.06
2023-04-06T19:37:20.699Z,43.75
2023-04-06T19:39:47.795Z,43.73
2023-04-06T19:42:21.492Z,43.95
2023-04-06T19:44:48.623Z,44.20
2023-04-06T19:47:15.452Z,44.79
2023-04-06T19:49:42.184Z,44.83
2023-04-06T19:52:10.067Z,44.91
2023-04-06T19:54:38.338Z,45.31
2023-04-06T19:57:04.980Z,46.07
2023-04-06T19:59:31.537Z,46.23
2023-04-06T20:01:58.193Z,46.08
2023-04-06T20:04:25.106Z,45.15
2023-04-06T20:06:51.835Z,45.72
2023-04-06T20:09:18.322Z,46.55
2023-04-06T20:11:45.008Z,46.21
2023-04-06T20:14:11.549Z,48.09
2023-04-06T20:16:38.261Z,46.75
2023-04-06T20:19:04.804Z,48.09
2023-04-06T20:21:31.421Z,48.26
2023-04-06T20:23:57.882Z,47.69
2023-04-06T20:26:24.416Z,47.88
2023-04-06T20:28:50.952Z,47.13
2023-04-06T20:31:17.509Z,47.56
2023-04-06T20:33:44.024Z,47.32
2023-04-06T20:36:11.676Z,46.52
2023-04-06T20:38:38.260Z,47.30
2023-04-06T20:41:04.768Z,46.60
2023-04-06T20:43:31.687Z,47.46
2023-04-06T20:45:59.199Z,48.03
2023-04-06T20:48:26.189Z,48.04
2023-04-06T20:50:52.945Z,48.15
2023-04-06T20:53:20.785Z,48.61
2023-04-06T20:55:47.613Z,49.36
2023-04-06T20:58:16.914Z,48.39
2023-04-06T21:00:43.390Z,48.17
2023-04-06T21:03:10.012Z,47.30
2023-04-06T21:05:36.630Z,47.46
2023-04-06T21:08:03.236Z,47.74
2023-04-06T21:10:29.747Z,47.16
2023-04-06T21:12:56.235Z,47.69
2023-04-06T21:15:22.818Z,47.82
2023-04-06T21:17:49.654Z,47.13
2023-04-06T21:20:16.280Z,47.28
2023-04-06T21:22:42.877Z,47.57
2023-04-06T21:25:09.675Z,46.99
2023-04-06T21:27:36.174Z,47.47
2023-04-06T21:30:02.782Z,47.28
2023-04-06T21:32:29.319Z,47.58
2023-04-06T21:34:55.833Z,47.67
2023-04-06T21:37:22.316Z,47.49
2023-04-06T21:39:48.841Z,47.45
2023-04-06T21:42:15.485Z,47.68
2023-04-06T21:44:41.929Z,47.98
2023-04-06T21:47:08.529Z,47.84
2023-04-06T21:49:35.146Z,48.10
2023-04-06T21:52:01.637Z,48.26
2023-04-06T21:54:33.055Z,48.05
2023-04-06T21:56:59.992Z,48.28
2023-04-06T21:59:26.437Z,48.67
2023-04-06T22:01:53.731Z,48.52
2023-04-06T22:04:23.360Z,49.25
2023-04-06T22:06:50.105Z,49.54
2023-04-06T22:09:16.827Z,48.71
2023-04-06T22:11:43.374Z,49.00
2023-04-06T22:14:10.615Z,48.25
2023-04-06T22:16:37.154Z,48.17
2023-04-06T22:19:03.760Z,47.93
2023-04-06T22:21:30.884Z,48.69
2023-04-06T22:23:57.476Z,49.03
2023-04-06T22:26:23.962Z,49.21
2023-04-06T22:28:50.608Z,48.33
2023-04-06T22:31:17.201Z,48.14
2023-04-06T22:33:43.704Z,48.96
2023-04-06T22:36:10.334Z,50.93
2023-04-06T22:38:36.901Z,48.58
2023-04-06T22:41:03.405Z,49.06
2023-04-06T22:43:29.894Z,49.63
2023-04-06T22:45:57.307Z,50.33
2023-04-06T22:48:23.773Z,50.09
2023-04-06T22:50:50.314Z,51.39
2023-04-06T22:53:16.785Z,51.94
2023-04-06T22:55:43.421Z,51.19
2023-04-06T22:58:10.046Z,51.70
2023-04-06T23:00:36.494Z,51.06
2023-04-06T23:03:03.137Z,50.73
2023-04-06T23:05:29.697Z,50.65
2023-04-06T23:07:56.370Z,51.02
2023-04-06T23:10:22.858Z,51.08
2023-04-06T23:12:49.371Z,50.88
2023-04-06T23:15:16.316Z,53.09
2023-04-06T23:17:42.896Z,53.55
2023-04-06T23:20:09.419Z,53.93
2023-04-06T23:22:35.909Z,53.05
2023-04-06T23:25:02.401Z,53.53
2023-04-06T23:27:28.883Z,51.98
2023-04-06T23:29:55.650Z,50.59
2023-04-06T23:32:22.245Z,50.80
2023-04-06T23:34:48.794Z,51.67
2023-04-06T23:37:15.371Z,54.17
2023-04-06T23:39:42.882Z,54.79
2023-04-06T23:42:09.308Z,54.31
2023-04-06T23:44:35.900Z,55.49
2023-04-06T23:47:02.395Z,55.94
2023-04-06T23:49:28.948Z,56.08
2023-04-06T23:51:55.621Z,56.67
2023-04-06T23:54:22.107Z,57.22
2023-04-06T23:56:50.534Z,57.05
2023-04-06T23:59:17.013Z,57.78
